Detall de PIREP

Printer-friendly versionPDF version

[2015/12/23 15:17:00]
Flight IATA:CT1004
Pilot Number:012
Company ICAO:CAT
Aircraft Type:A320/E
PAX:150
Departing Airport: LERS
Destination Airport: LEVT
Alternate Airport:LEAS
Online: VATSIM
Route:POSSY UM601 PPN
Flight Level:F290
No Slew and time accel
No pause
Crash detect
Detect pilot in Cockpit between each 30 and 45 minutes
15:17 Zero fuel Weight: 121094 Lbs, Fuel Weight: 12971 Lbs
15:17 VATSIM:LERS 231500Z 18003KT 150V220 9999 BKN030 15/12 Q1030
15:17 VATSIM:LEVT 231500Z 22009KT CAVOK 12/05 Q1028
15:17 X-MAS CHARTER
15:26 Parking Brakes off
15:33 Take-off
15:33 Take off Weight: 133215 Lbs
15:33 Wind: 191º @ 003 Knots Heading: 247º
15:33 POS N41º 08´ 46´´ E001º 09´ 46´´
15:33 Flaps:3 at 170 Knots
15:33 Gear Up: 172 Knots
15:33 Flaps:2 at 182 Knots
15:33 Flaps:0 at 194 Knots
15:44 TOC
15:44 Fuel Weight: 9006 Lb
15:48 Wind:237º@014 Knots Heading: 291º Ground Speed: 451 Knots Altitude 29452 ft
15:56 TOD
15:56 Fuel Weight: 7635 Lb
16:03 Wind:234º@022 Knots Heading: 262º Ground Speed: 306 Knots Altitude 16820 ft
16:11 Flaps:1 at 239 Knots
16:15 Flaps:3 at 182 Knots
16:16 Gear Down: 181 Knots
16:16 Flaps:4 at 175 Knots
16:16 Flaps:5 at 168 Knots
16:18 Wind:229º@009 Knots Heading: 232º Ground Speed: 140 Knots Altitude 5049 ft
16:21 TouchDown:Rate -231 ft/min Speed: 132 Knots
16:21 VATSIM:LEVT 231600Z 23009KT CAVOK 10/05 Q1028
16:21 Land
16:21 Wind:231º@009 Knots
16:21 Heading: 215º
16:21 Flight Duration: 00:48
16:21 Landing Weight: 126508 Lbs
16:21 POS N42º 53´ 05´´ W002º 43´ 21´´
16:24 Parking brakes on
16:24 Block to Block Duration: 00:58
16:24 Final Fuel: 5249 Lbls
16:24 Spent Fuel: 7722 Lbls
16:24 Flight Length: 267 NM
16:24 TOD Land Length: 109 NM

Exportar CSV

Powered by Drupal - Modified by Danger4k